createdAt,value
2023-03-03T00:11:02.234Z,46.56
2023-03-03T00:25:52.325Z,35.08
2023-03-03T00:40:41.604Z,36.51
2023-03-03T00:55:32.182Z,38.32
2023-03-03T01:10:21.826Z,34.70
2023-03-03T01:25:13.718Z,40.16
2023-03-03T01:40:05.919Z,37.81
2023-03-03T02:10:05.843Z,29.46
2023-03-03T02:25:00.033Z,25.79
2023-03-03T02:39:51.222Z,24.40
2023-03-03T02:54:40.977Z,22.39
2023-03-03T03:09:31.160Z,24.30
2023-03-03T03:24:28.531Z,23.32
2023-03-03T03:39:13.406Z,21.04
2023-03-03T03:54:03.055Z,22.23
2023-03-03T04:08:52.111Z,24.39
2023-03-03T04:23:42.218Z,24.18
2023-03-03T04:38:32.271Z,23.68
2023-03-03T04:53:22.213Z,24.61
2023-03-03T05:08:11.931Z,24.34
2023-03-03T05:23:02.271Z,24.37
2023-03-03T05:37:52.534Z,24.99
2023-03-03T05:52:43.151Z,26.74
2023-03-03T06:07:32.805Z,25.90
2023-03-03T06:22:23.847Z,19.72
2023-03-03T06:37:14.771Z,19.64
2023-03-03T06:52:05.384Z,17.51
2023-03-03T07:06:56.207Z,19.14
2023-03-03T07:21:46.435Z,20.61
2023-03-03T07:36:36.010Z,25.18
2023-03-03T07:51:38.487Z,25.20
2023-03-03T08:06:37.358Z,24.74
2023-03-03T08:21:30.827Z,21.86
2023-03-03T08:36:21.071Z,23.91
2023-03-03T08:51:11.261Z,21.19
2023-03-03T09:06:01.729Z,18.32
2023-03-03T09:20:53.128Z,17.67
2023-03-03T09:35:44.307Z,17.24
2023-03-03T09:50:57.854Z,17.16
2023-03-03T10:05:53.490Z,16.98
2023-03-03T10:21:01.301Z,15.90
2023-03-03T10:36:24.981Z,16.09
2023-03-03T10:51:28.542Z,16.72
2023-03-03T11:06:26.921Z,15.86
2023-03-03T11:21:23.551Z,17.22
2023-03-03T11:36:23.894Z,17.61
2023-03-03T11:51:33.825Z,17.27
2023-03-03T12:06:32.880Z,16.87
2023-03-03T12:21:39.801Z,17.18
2023-03-03T12:36:50.984Z,18.08
2023-03-03T12:51:54.980Z,18.78
2023-03-03T13:06:51.681Z,17.81
2023-03-03T13:21:54.543Z,18.40
2023-03-03T13:36:53.931Z,19.24
2023-03-03T13:51:48.314Z,20.20
2023-03-03T14:06:39.253Z,18.54
2023-03-03T14:21:30.783Z,19.60
2023-03-03T14:36:21.978Z,18.97
2023-03-03T14:51:27.816Z,18.77
2023-03-03T15:06:47.849Z,18.97
2023-03-03T15:21:44.649Z,18.86
2023-03-03T15:36:54.140Z,19.18
2023-03-03T15:52:08.172Z,18.46
2023-03-03T16:07:26.047Z,21.28
2023-03-03T16:22:38.849Z,18.14
2023-03-03T16:37:37.128Z,18.23
2023-03-03T16:52:30.321Z,18.67
2023-03-03T17:07:19.909Z,18.29
2023-03-03T17:22:34.503Z,18.12
2023-03-03T17:37:38.644Z,17.88
2023-03-03T17:52:32.837Z,16.43
2023-03-03T18:07:44.981Z,14.04
2023-03-03T18:22:48.714Z,13.94
2023-03-03T18:37:43.662Z,12.10
2023-03-03T18:52:33.449Z,12.00
2023-03-03T19:07:28.650Z,12.08
2023-03-03T19:22:24.964Z,12.49
2023-03-03T19:37:39.233Z,12.06
2023-03-03T19:52:38.940Z,12.50
2023-03-03T20:08:02.176Z,13.88
2023-03-03T20:23:10.731Z,12.84
2023-03-03T20:38:36.952Z,13.48
2023-03-03T20:53:36.224Z,12.39
2023-03-03T21:08:47.686Z,13.10
2023-03-03T21:53:36.515Z,13.20
2023-03-03T22:23:24.679Z,12.04
2023-03-03T22:38:14.522Z,13.66
2023-03-03T22:53:03.822Z,10.57
2023-03-03T23:07:53.322Z,12.09
2023-03-03T23:22:43.666Z,11.39
2023-03-03T23:37:33.312Z,13.32
